Portland, Missouri
Current Conditions -  °F | °C
As of 5:53 AM on Wednesday 28 Jan 2015 (Local Time) from KJEF Reporting Station
Clear Clear  
Wind Chill: -5°   Ceiling: Unl
Heat Index:   Visibility: 9mi
Dew Point: -2°   Wind: 12mph
Humidity: 85%   Direction: 110°ESE
Pressure: 30.13"   Gusts: NA
Location:  38.71°N, 91.72°W
Report Text: KJEF 281153Z 11010KT 9SM CLR 00/M02 A3013 RMK AO2 SLP195 T00001022 10033 20000 56011
Loading
Personal Weather Stations






























Interactive Weather Map New forecast layout! Learn more

10-Day Weather Forecast

Advertisements
Track Severe Weather on mobile